sensor_id;sensor_type;location;lat;lon;timestamp;P1;durP1;ratioP1;P2;durP2;ratioP2
52948;SDS011;38812;50.942;3.644;2023-03-02T00:07:09;17.05;;;8.18;;
52948;SDS011;38812;50.942;3.644;2023-03-02T00:09:37;13.25;;;8.38;;
52948;SDS011;38812;50.942;3.644;2023-03-02T00:12:03;13.45;;;8.02;;
52948;SDS011;38812;50.942;3.644;2023-03-02T00:14:29;21.50;;;8.95;;
52948;SDS011;38812;50.942;3.644;2023-03-02T00:16:55;12.30;;;7.35;;
52948;SDS011;38812;50.942;3.644;2023-03-02T00:19:20;17.80;;;8.80;;
52948;SDS011;38812;50.942;3.644;2023-03-02T00:21:46;12.93;;;7.80;;
52948;SDS011;38812;50.942;3.644;2023-03-02T00:24:11;13.52;;;7.03;;
52948;SDS011;38812;50.942;3.644;2023-03-02T00:26:39;15.18;;;7.25;;
52948;SDS011;38812;50.942;3.644;2023-03-02T00:29:06;12.32;;;7.55;;
52948;SDS011;38812;50.942;3.644;2023-03-02T00:31:31;14.82;;;7.88;;
52948;SDS011;38812;50.942;3.644;2023-03-02T00:33:57;12.82;;;7.22;;
52948;SDS011;38812;50.942;3.644;2023-03-02T00:36:22;13.10;;;7.97;;
52948;SDS011;38812;50.942;3.644;2023-03-02T00:38:48;15.70;;;7.85;;
52948;SDS011;38812;50.942;3.644;2023-03-02T00:41:16;13.27;;;7.65;;
52948;SDS011;38812;50.942;3.644;2023-03-02T00:43:42;14.38;;;7.57;;
52948;SDS011;38812;50.942;3.644;2023-03-02T00:46:11;12.00;;;7.00;;
52948;SDS011;38812;50.942;3.644;2023-03-02T00:48:39;13.60;;;6.80;;
52948;SDS011;38812;50.942;3.644;2023-03-02T00:51:04;11.00;;;6.07;;
52948;SDS011;38812;50.942;3.644;2023-03-02T00:53:30;16.70;;;7.47;;
52948;SDS011;38812;50.942;3.644;2023-03-02T00:55:56;14.38;;;6.80;;
52948;SDS011;38812;50.942;3.644;2023-03-02T00:58:21;11.52;;;6.32;;
52948;SDS011;38812;50.942;3.644;2023-03-02T01:00:47;11.82;;;6.28;;
52948;SDS011;38812;50.942;3.644;2023-03-02T01:03:13;13.80;;;6.60;;
52948;SDS011;38812;50.942;3.644;2023-03-02T01:05:39;15.27;;;7.57;;
52948;SDS011;38812;50.942;3.644;2023-03-02T01:08:04;15.57;;;7.35;;
52948;SDS011;38812;50.942;3.644;2023-03-02T01:10:30;16.65;;;7.10;;
52948;SDS011;38812;50.942;3.644;2023-03-02T01:12:56;14.27;;;6.72;;
52948;SDS011;38812;50.942;3.644;2023-03-02T01:15:22;12.95;;;6.85;;
52948;SDS011;38812;50.942;3.644;2023-03-02T01:17:47;11.88;;;6.57;;
52948;SDS011;38812;50.942;3.644;2023-03-02T01:20:12;14.70;;;6.32;;
52948;SDS011;38812;50.942;3.644;2023-03-02T01:22:39;15.35;;;6.85;;
52948;SDS011;38812;50.942;3.644;2023-03-02T01:25:04;17.52;;;6.95;;
52948;SDS011;38812;50.942;3.644;2023-03-02T01:27:30;10.70;;;6.10;;
52948;SDS011;38812;50.942;3.644;2023-03-02T01:29:56;11.25;;;6.60;;
52948;SDS011;38812;50.942;3.644;2023-03-02T01:32:21;17.25;;;7.30;;
52948;SDS011;38812;50.942;3.644;2023-03-02T01:34:46;14.15;;;6.65;;
52948;SDS011;38812;50.942;3.644;2023-03-02T01:37:12;11.38;;;6.65;;
52948;SDS011;38812;50.942;3.644;2023-03-02T01:39:37;13.13;;;7.13;;
52948;SDS011;38812;50.942;3.644;2023-03-02T01:42:03;12.48;;;7.20;;
52948;SDS011;38812;50.942;3.644;2023-03-02T01:44:32;14.65;;;7.45;;
52948;SDS011;38812;50.942;3.644;2023-03-02T01:46:59;15.18;;;7.20;;
52948;SDS011;38812;50.942;3.644;2023-03-02T01:49:26;9.88;;;5.63;;
52948;SDS011;38812;50.942;3.644;2023-03-02T01:51:52;12.07;;;6.60;;
52948;SDS011;38812;50.942;3.644;2023-03-02T01:54:19;14.02;;;6.97;;
52948;SDS011;38812;50.942;3.644;2023-03-02T01:56:47;18.02;;;6.43;;
52948;SDS011;38812;50.942;3.644;2023-03-02T01:59:20;13.27;;;6.60;;
52948;SDS011;38812;50.942;3.644;2023-03-02T02:01:49;11.57;;;6.70;;
52948;SDS011;38812;50.942;3.644;2023-03-02T02:04:17;10.38;;;5.72;;
52948;SDS011;38812;50.942;3.644;2023-03-02T02:06:46;12.30;;;5.50;;
52948;SDS011;38812;50.942;3.644;2023-03-02T02:09:15;10.07;;;5.68;;
52948;SDS011;38812;50.942;3.644;2023-03-02T02:11:44;11.25;;;6.13;;
52948;SDS011;38812;50.942;3.644;2023-03-02T02:14:10;11.38;;;5.55;;
52948;SDS011;38812;50.942;3.644;2023-03-02T02:16:36;10.00;;;5.80;;
52948;SDS011;38812;50.942;3.644;2023-03-02T02:19:03;11.65;;;6.50;;
52948;SDS011;38812;50.942;3.644;2023-03-02T02:21:57;12.93;;;6.70;;
52948;SDS011;38812;50.942;3.644;2023-03-02T02:24:24;11.25;;;6.32;;
52948;SDS011;38812;50.942;3.644;2023-03-02T02:26:54;14.98;;;6.53;;
52948;SDS011;38812;50.942;3.644;2023-03-02T02:29:23;11.10;;;6.47;;
52948;SDS011;38812;50.942;3.644;2023-03-02T02:39:45;14.57;;;6.63;;
52948;SDS011;38812;50.942;3.644;2023-03-02T02:42:33;16.58;;;6.75;;
52948;SDS011;38812;50.942;3.644;2023-03-02T02:45:01;13.95;;;5.97;;
52948;SDS011;38812;50.942;3.644;2023-03-02T02:47:29;15.88;;;7.35;;
52948;SDS011;38812;50.942;3.644;2023-03-02T02:49:56;10.50;;;6.10;;
52948;SDS011;38812;50.942;3.644;2023-03-02T02:52:23;11.25;;;6.72;;
52948;SDS011;38812;50.942;3.644;2023-03-02T02:54:52;12.65;;;6.65;;
52948;SDS011;38812;50.942;3.644;2023-03-02T02:57:20;14.23;;;6.75;;
52948;SDS011;38812;50.942;3.644;2023-03-02T02:59:50;12.75;;;6.57;;
52948;SDS011;38812;50.942;3.644;2023-03-02T03:02:22;12.23;;;6.90;;
52948;SDS011;38812;50.942;3.644;2023-03-02T03:04:50;10.55;;;6.68;;
52948;SDS011;38812;50.942;3.644;2023-03-02T03:07:20;15.95;;;5.82;;
52948;SDS011;38812;50.942;3.644;2023-03-02T03:09:50;11.68;;;6.40;;
52948;SDS011;38812;50.942;3.644;2023-03-02T03:12:26;11.05;;;6.22;;
52948;SDS011;38812;50.942;3.644;2023-03-02T03:14:53;13.63;;;6.15;;
52948;SDS011;38812;50.942;3.644;2023-03-02T03:17:19;9.90;;;6.32;;
52948;SDS011;38812;50.942;3.644;2023-03-02T03:19:45;15.35;;;7.00;;
52948;SDS011;38812;50.942;3.644;2023-03-02T03:22:11;19.45;;;6.93;;
52948;SDS011;38812;50.942;3.644;2023-03-02T03:24:39;12.30;;;6.63;;
52948;SDS011;38812;50.942;3.644;2023-03-02T03:27:06;13.35;;;6.55;;
52948;SDS011;38812;50.942;3.644;2023-03-02T03:29:33;12.40;;;7.20;;
52948;SDS011;38812;50.942;3.644;2023-03-02T03:32:00;13.02;;;7.20;;
52948;SDS011;38812;50.942;3.644;2023-03-02T03:34:26;13.77;;;6.90;;
52948;SDS011;38812;50.942;3.644;2023-03-02T03:36:53;18.17;;;8.27;;
52948;SDS011;38812;50.942;3.644;2023-03-02T03:39:19;14.60;;;6.72;;
52948;SDS011;38812;50.942;3.644;2023-03-02T03:41:45;14.00;;;8.57;;
52948;SDS011;38812;50.942;3.644;2023-03-02T03:44:10;11.95;;;7.05;;
52948;SDS011;38812;50.942;3.644;2023-03-02T03:46:36;17.85;;;7.20;;
52948;SDS011;38812;50.942;3.644;2023-03-02T03:49:02;10.55;;;6.40;;
52948;SDS011;38812;50.942;3.644;2023-03-02T03:51:27;12.77;;;6.32;;
52948;SDS011;38812;50.942;3.644;2023-03-02T03:53:54;13.00;;;6.07;;
52948;SDS011;38812;50.942;3.644;2023-03-02T03:56:29;10.18;;;6.72;;
52948;SDS011;38812;50.942;3.644;2023-03-02T03:58:57;12.52;;;6.55;;
52948;SDS011;38812;50.942;3.644;2023-03-02T04:04:10;13.25;;;7.03;;
52948;SDS011;38812;50.942;3.644;2023-03-02T04:06:37;11.07;;;6.00;;
52948;SDS011;38812;50.942;3.644;2023-03-02T04:09:03;17.05;;;7.07;;
52948;SDS011;38812;50.942;3.644;2023-03-02T04:11:33;13.23;;;7.18;;
52948;SDS011;38812;50.942;3.644;2023-03-02T04:14:01;10.73;;;6.43;;
52948;SDS011;38812;50.942;3.644;2023-03-02T04:16:28;11.10;;;5.95;;
52948;SDS011;38812;50.942;3.644;2023-03-02T04:18:54;10.52;;;6.85;;
52948;SDS011;38812;50.942;3.644;2023-03-02T04:21:20;12.45;;;6.63;;
52948;SDS011;38812;50.942;3.644;2023-03-02T04:23:46;15.55;;;6.55;;
52948;SDS011;38812;50.942;3.644;2023-03-02T04:26:12;8.48;;;5.70;;
52948;SDS011;38812;50.942;3.644;2023-03-02T04:28:37;14.35;;;6.68;;
52948;SDS011;38812;50.942;3.644;2023-03-02T04:31:03;9.57;;;5.88;;
52948;SDS011;38812;50.942;3.644;2023-03-02T04:33:29;12.35;;;6.85;;
52948;SDS011;38812;50.942;3.644;2023-03-02T04:35:55;11.77;;;6.07;;
52948;SDS011;38812;50.942;3.644;2023-03-02T04:38:20;11.63;;;5.68;;
52948;SDS011;38812;50.942;3.644;2023-03-02T04:40:46;17.08;;;7.00;;
52948;SDS011;38812;50.942;3.644;2023-03-02T04:43:12;13.32;;;6.40;;
52948;SDS011;38812;50.942;3.644;2023-03-02T04:45:37;12.77;;;6.97;;
52948;SDS011;38812;50.942;3.644;2023-03-02T04:48:03;9.93;;;5.75;;
52948;SDS011;38812;50.942;3.644;2023-03-02T04:50:29;16.73;;;6.53;;
52948;SDS011;38812;50.942;3.644;2023-03-02T04:52:55;12.40;;;6.57;;
52948;SDS011;38812;50.942;3.644;2023-03-02T04:55:21;10.20;;;6.50;;
52948;SDS011;38812;50.942;3.644;2023-03-02T04:57:48;10.85;;;6.18;;
52948;SDS011;38812;50.942;3.644;2023-03-02T05:00:14;9.55;;;6.28;;
52948;SDS011;38812;50.942;3.644;2023-03-02T05:02:41;11.48;;;6.55;;
52948;SDS011;38812;50.942;3.644;2023-03-02T05:05:06;12.20;;;6.57;;
52948;SDS011;38812;50.942;3.644;2023-03-02T05:07:37;13.13;;;6.28;;
52948;SDS011;38812;50.942;3.644;2023-03-02T05:10:02;13.77;;;6.95;;
52948;SDS011;38812;50.942;3.644;2023-03-02T05:12:28;16.90;;;7.32;;
52948;SDS011;38812;50.942;3.644;2023-03-02T05:14:54;13.13;;;7.05;;
52948;SDS011;38812;50.942;3.644;2023-03-02T05:17:19;12.18;;;6.68;;
52948;SDS011;38812;50.942;3.644;2023-03-02T05:19:44;13.07;;;7.28;;
52948;SDS011;38812;50.942;3.644;2023-03-02T05:22:10;14.30;;;7.25;;
52948;SDS011;38812;50.942;3.644;2023-03-02T05:24:35;14.23;;;7.38;;
52948;SDS011;38812;50.942;3.644;2023-03-02T05:27:01;12.95;;;7.97;;
52948;SDS011;38812;50.942;3.644;2023-03-02T05:29:26;12.95;;;7.20;;
52948;SDS011;38812;50.942;3.644;2023-03-02T05:31:52;13.80;;;7.72;;
52948;SDS011;38812;50.942;3.644;2023-03-02T05:34:17;18.98;;;7.68;;
52948;SDS011;38812;50.942;3.644;2023-03-02T05:36:43;15.77;;;7.95;;
52948;SDS011;38812;50.942;3.644;2023-03-02T05:39:09;15.65;;;8.10;;
52948;SDS011;38812;50.942;3.644;2023-03-02T05:41:35;21.20;;;7.95;;
52948;SDS011;38812;50.942;3.644;2023-03-02T05:44:01;16.75;;;9.10;;
52948;SDS011;38812;50.942;3.644;2023-03-02T05:46:27;18.52;;;9.60;;
52948;SDS011;38812;50.942;3.644;2023-03-02T05:48:53;21.45;;;10.13;;
52948;SDS011;38812;50.942;3.644;2023-03-02T05:51:18;16.58;;;9.70;;
52948;SDS011;38812;50.942;3.644;2023-03-02T05:53:44;17.63;;;8.93;;
52948;SDS011;38812;50.942;3.644;2023-03-02T05:56:09;19.73;;;9.00;;
52948;SDS011;38812;50.942;3.644;2023-03-02T05:58:35;22.02;;;8.75;;
52948;SDS011;38812;50.942;3.644;2023-03-02T06:01:00;22.90;;;10.05;;
52948;SDS011;38812;50.942;3.644;2023-03-02T06:03:26;20.52;;;10.57;;
52948;SDS011;38812;50.942;3.644;2023-03-02T06:05:52;21.48;;;9.98;;
52948;SDS011;38812;50.942;3.644;2023-03-02T06:08:18;23.80;;;11.52;;
52948;SDS011;38812;50.942;3.644;2023-03-02T06:10:45;20.55;;;10.93;;
52948;SDS011;38812;50.942;3.644;2023-03-02T06:13:10;22.02;;;11.30;;
52948;SDS011;38812;50.942;3.644;2023-03-02T06:15:36;21.02;;;11.25;;
52948;SDS011;38812;50.942;3.644;2023-03-02T06:18:03;26.40;;;12.80;;
52948;SDS011;38812;50.942;3.644;2023-03-02T06:20:29;23.38;;;12.68;;
52948;SDS011;38812;50.942;3.644;2023-03-02T06:22:54;25.40;;;12.43;;
52948;SDS011;38812;50.942;3.644;2023-03-02T06:25:20;29.95;;;14.10;;
52948;SDS011;38812;50.942;3.644;2023-03-02T06:27:48;27.48;;;14.55;;
52948;SDS011;38812;50.942;3.644;2023-03-02T06:30:16;27.65;;;14.70;;
52948;SDS011;38812;50.942;3.644;2023-03-02T06:32:43;28.20;;;13.63;;
52948;SDS011;38812;50.942;3.644;2023-03-02T06:35:10;30.35;;;15.30;;
52948;SDS011;38812;50.942;3.644;2023-03-02T06:37:36;30.75;;;14.05;;
52948;SDS011;38812;50.942;3.644;2023-03-02T06:40:02;30.25;;;14.98;;
52948;SDS011;38812;50.942;3.644;2023-03-02T06:42:32;28.52;;;15.43;;
52948;SDS011;38812;50.942;3.644;2023-03-02T06:44:58;27.98;;;15.68;;
52948;SDS011;38812;50.942;3.644;2023-03-02T06:47:24;38.63;;;16.02;;
52948;SDS011;38812;50.942;3.644;2023-03-02T06:49:49;35.33;;;16.25;;
52948;SDS011;38812;50.942;3.644;2023-03-02T06:52:15;32.10;;;16.38;;
52948;SDS011;38812;50.942;3.644;2023-03-02T06:54:40;34.33;;;17.23;;
52948;SDS011;38812;50.942;3.644;2023-03-02T06:57:06;31.75;;;16.95;;
52948;SDS011;38812;50.942;3.644;2023-03-02T06:59:32;33.47;;;16.13;;
52948;SDS011;38812;50.942;3.644;2023-03-02T07:01:57;33.90;;;17.25;;
52948;SDS011;38812;50.942;3.644;2023-03-02T07:04:23;35.28;;;17.48;;
52948;SDS011;38812;50.942;3.644;2023-03-02T07:06:48;31.20;;;16.85;;
52948;SDS011;38812;50.942;3.644;2023-03-02T07:09:14;32.53;;;17.10;;
52948;SDS011;38812;50.942;3.644;2023-03-02T07:11:39;35.70;;;19.00;;
52948;SDS011;38812;50.942;3.644;2023-03-02T07:14:05;34.05;;;17.73;;
52948;SDS011;38812;50.942;3.644;2023-03-02T07:16:32;34.15;;;17.98;;
52948;SDS011;38812;50.942;3.644;2023-03-02T07:18:58;34.38;;;18.10;;
52948;SDS011;38812;50.942;3.644;2023-03-02T07:21:24;36.47;;;18.60;;
52948;SDS011;38812;50.942;3.644;2023-03-02T07:23:49;42.88;;;18.15;;
52948;SDS011;38812;50.942;3.644;2023-03-02T07:26:15;36.60;;;19.33;;
52948;SDS011;38812;50.942;3.644;2023-03-02T07:28:40;36.40;;;19.33;;
52948;SDS011;38812;50.942;3.644;2023-03-02T07:31:07;40.80;;;19.15;;
52948;SDS011;38812;50.942;3.644;2023-03-02T07:33:33;40.30;;;20.23;;
52948;SDS011;38812;50.942;3.644;2023-03-02T07:35:59;39.60;;;19.98;;
52948;SDS011;38812;50.942;3.644;2023-03-02T07:38:25;44.72;;;20.00;;
52948;SDS011;38812;50.942;3.644;2023-03-02T07:40:50;41.42;;;20.90;;
52948;SDS011;38812;50.942;3.644;2023-03-02T07:43:16;44.67;;;22.40;;
52948;SDS011;38812;50.942;3.644;2023-03-02T07:45:41;42.08;;;21.40;;
52948;SDS011;38812;50.942;3.644;2023-03-02T07:48:07;44.67;;;22.42;;
52948;SDS011;38812;50.942;3.644;2023-03-02T07:50:32;41.10;;;21.23;;
52948;SDS011;38812;50.942;3.644;2023-03-02T07:52:58;40.50;;;22.42;;
52948;SDS011;38812;50.942;3.644;2023-03-02T07:55:23;43.25;;;22.38;;
52948;SDS011;38812;50.942;3.644;2023-03-02T07:57:49;42.10;;;23.13;;
52948;SDS011;38812;50.942;3.644;2023-03-02T08:00:15;44.10;;;23.17;;
52948;SDS011;38812;50.942;3.644;2023-03-02T08:02:41;43.03;;;21.58;;
52948;SDS011;38812;50.942;3.644;2023-03-02T08:05:07;45.08;;;23.33;;
52948;SDS011;38812;50.942;3.644;2023-03-02T08:07:33;40.58;;;21.85;;
52948;SDS011;38812;50.942;3.644;2023-03-02T08:09:58;50.28;;;22.05;;
52948;SDS011;38812;50.942;3.644;2023-03-02T08:12:25;39.22;;;20.95;;
52948;SDS011;38812;50.942;3.644;2023-03-02T08:14:51;36.75;;;20.33;;
52948;SDS011;38812;50.942;3.644;2023-03-02T08:17:16;41.78;;;21.58;;
52948;SDS011;38812;50.942;3.644;2023-03-02T08:19:41;36.35;;;20.02;;
52948;SDS011;38812;50.942;3.644;2023-03-02T08:22:07;41.47;;;19.90;;
52948;SDS011;38812;50.942;3.644;2023-03-02T08:24:32;40.65;;;20.02;;
52948;SDS011;38812;50.942;3.644;2023-03-02T08:27:01;35.95;;;19.67;;
52948;SDS011;38812;50.942;3.644;2023-03-02T08:29:27;35.97;;;20.73;;
52948;SDS011;38812;50.942;3.644;2023-03-02T08:31:53;35.92;;;19.20;;
52948;SDS011;38812;50.942;3.644;2023-03-02T08:34:18;34.38;;;19.02;;
52948;SDS011;38812;50.942;3.644;2023-03-02T08:36:44;32.30;;;18.67;;
52948;SDS011;38812;50.942;3.644;2023-03-02T08:39:09;34.45;;;18.65;;
52948;SDS011;38812;50.942;3.644;2023-03-02T08:41:35;37.33;;;19.70;;
52948;SDS011;38812;50.942;3.644;2023-03-02T08:44:00;28.08;;;17.60;;
52948;SDS011;38812;50.942;3.644;2023-03-02T08:46:26;32.47;;;17.77;;
52948;SDS011;38812;50.942;3.644;2023-03-02T08:48:51;36.70;;;18.75;;
52948;SDS011;38812;50.942;3.644;2023-03-02T08:51:18;35.08;;;18.35;;
52948;SDS011;38812;50.942;3.644;2023-03-02T08:53:47;41.53;;;19.13;;
52948;SDS011;38812;50.942;3.644;2023-03-02T08:56:15;32.55;;;18.55;;
52948;SDS011;38812;50.942;3.644;2023-03-02T08:58:41;36.83;;;19.25;;
52948;SDS011;38812;50.942;3.644;2023-03-02T09:01:14;32.17;;;19.25;;
52948;SDS011;38812;50.942;3.644;2023-03-02T09:03:40;41.72;;;21.50;;
52948;SDS011;38812;50.942;3.644;2023-03-02T09:06:06;32.67;;;18.88;;
52948;SDS011;38812;50.942;3.644;2023-03-02T09:08:31;37.40;;;20.65;;
52948;SDS011;38812;50.942;3.644;2023-03-02T09:10:56;32.40;;;18.00;;
52948;SDS011;38812;50.942;3.644;2023-03-02T09:13:22;32.20;;;18.58;;
52948;SDS011;38812;50.942;3.644;2023-03-02T09:15:47;34.80;;;18.55;;
52948;SDS011;38812;50.942;3.644;2023-03-02T09:18:13;36.28;;;19.80;;
52948;SDS011;38812;50.942;3.644;2023-03-02T09:20:38;34.25;;;18.02;;
52948;SDS011;38812;50.942;3.644;2023-03-02T09:23:03;30.50;;;18.67;;
52948;SDS011;38812;50.942;3.644;2023-03-02T09:25:29;39.85;;;20.13;;
52948;SDS011;38812;50.942;3.644;2023-03-02T09:27:54;33.17;;;18.20;;
52948;SDS011;38812;50.942;3.644;2023-03-02T09:30:20;36.15;;;20.30;;
52948;SDS011;38812;50.942;3.644;2023-03-02T09:32:45;34.78;;;20.02;;
52948;SDS011;38812;50.942;3.644;2023-03-02T09:35:12;35.22;;;20.58;;
52948;SDS011;38812;50.942;3.644;2023-03-02T09:37:38;34.95;;;19.98;;
52948;SDS011;38812;50.942;3.644;2023-03-02T09:40:04;31.77;;;19.00;;
52948;SDS011;38812;50.942;3.644;2023-03-02T09:45:16;38.15;;;20.05;;
52948;SDS011;38812;50.942;3.644;2023-03-02T09:50:27;35.75;;;19.48;;
52948;SDS011;38812;50.942;3.644;2023-03-02T09:56:12;33.30;;;19.17;;
52948;SDS011;38812;50.942;3.644;2023-03-02T09:58:40;35.33;;;19.13;;
52948;SDS011;38812;50.942;3.644;2023-03-02T10:01:14;39.10;;;21.33;;
52948;SDS011;38812;50.942;3.644;2023-03-02T10:03:49;33.50;;;19.45;;
52948;SDS011;38812;50.942;3.644;2023-03-02T10:06:20;35.10;;;20.50;;
52948;SDS011;38812;50.942;3.644;2023-03-02T10:08:45;36.28;;;19.35;;
52948;SDS011;38812;50.942;3.644;2023-03-02T10:14:32;31.50;;;19.15;;
52948;SDS011;38812;50.942;3.644;2023-03-02T10:19:52;31.70;;;18.77;;
52948;SDS011;38812;50.942;3.644;2023-03-02T10:22:26;33.90;;;18.83;;
52948;SDS011;38812;50.942;3.644;2023-03-02T10:25:03;32.83;;;18.70;;
52948;SDS011;38812;50.942;3.644;2023-03-02T10:27:42;33.22;;;20.60;;
52948;SDS011;38812;50.942;3.644;2023-03-02T10:32:51;32.85;;;19.05;;
52948;SDS011;38812;50.942;3.644;2023-03-02T10:35:21;29.65;;;18.58;;
52948;SDS011;38812;50.942;3.644;2023-03-02T10:38:22;34.63;;;19.98;;
52948;SDS011;38812;50.942;3.644;2023-03-02T10:40:45;34.97;;;19.42;;
52948;SDS011;38812;50.942;3.644;2023-03-02T10:43:19;33.88;;;19.13;;
52948;SDS011;38812;50.942;3.644;2023-03-02T10:46:06;35.22;;;20.52;;
52948;SDS011;38812;50.942;3.644;2023-03-02T10:48:55;39.22;;;19.77;;
52948;SDS011;38812;50.942;3.644;2023-03-02T10:51:28;33.80;;;20.25;;
52948;SDS011;38812;50.942;3.644;2023-03-02T10:54:11;38.45;;;19.30;;
52948;SDS011;38812;50.942;3.644;2023-03-02T10:56:40;35.40;;;19.85;;
52948;SDS011;38812;50.942;3.644;2023-03-02T11:04:24;35.10;;;20.17;;
52948;SDS011;38812;50.942;3.644;2023-03-02T11:06:51;32.58;;;19.05;;
52948;SDS011;38812;50.942;3.644;2023-03-02T11:09:17;32.38;;;18.42;;
52948;SDS011;38812;50.942;3.644;2023-03-02T11:11:47;38.85;;;21.05;;
52948;SDS011;38812;50.942;3.644;2023-03-02T11:14:17;32.13;;;19.27;;
52948;SDS011;38812;50.942;3.644;2023-03-02T11:16:42;32.33;;;18.65;;
52948;SDS011;38812;50.942;3.644;2023-03-02T11:24:32;32.83;;;17.88;;
52948;SDS011;38812;50.942;3.644;2023-03-02T11:27:13;30.85;;;18.83;;
52948;SDS011;38812;50.942;3.644;2023-03-02T11:32:27;33.25;;;19.67;;
52948;SDS011;38812;50.942;3.644;2023-03-02T11:34:59;33.42;;;18.15;;
52948;SDS011;38812;50.942;3.644;2023-03-02T11:37:50;31.65;;;18.73;;
52948;SDS011;38812;50.942;3.644;2023-03-02T11:40:24;30.95;;;18.73;;
52948;SDS011;38812;50.942;3.644;2023-03-02T11:43:15;28.85;;;17.35;;
52948;SDS011;38812;50.942;3.644;2023-03-02T11:45:44;33.05;;;17.60;;
52948;SDS011;38812;50.942;3.644;2023-03-02T11:51:01;29.27;;;17.20;;
52948;SDS011;38812;50.942;3.644;2023-03-02T11:53:40;31.58;;;16.40;;
52948;SDS011;38812;50.942;3.644;2023-03-02T11:56:24;31.92;;;18.25;;
52948;SDS011;38812;50.942;3.644;2023-03-02T11:58:56;36.35;;;17.17;;
52948;SDS011;38812;50.942;3.644;2023-03-02T12:01:25;31.38;;;15.75;;
52948;SDS011;38812;50.942;3.644;2023-03-02T12:03:52;28.83;;;15.23;;
52948;SDS011;38812;50.942;3.644;2023-03-02T12:08:47;28.48;;;16.25;;
52948;SDS011;38812;50.942;3.644;2023-03-02T12:13:41;28.52;;;16.20;;
52948;SDS011;38812;50.942;3.644;2023-03-02T12:16:22;28.00;;;15.25;;
52948;SDS011;38812;50.942;3.644;2023-03-02T12:19:09;25.38;;;15.05;;
52948;SDS011;38812;50.942;3.644;2023-03-02T12:21:42;30.00;;;15.82;;
52948;SDS011;38812;50.942;3.644;2023-03-02T12:24:22;23.30;;;14.75;;
52948;SDS011;38812;50.942;3.644;2023-03-02T12:27:05;29.52;;;15.02;;
52948;SDS011;38812;50.942;3.644;2023-03-02T12:29:41;24.85;;;14.98;;
52948;SDS011;38812;50.942;3.644;2023-03-02T12:34:43;24.58;;;14.25;;
52948;SDS011;38812;50.942;3.644;2023-03-02T12:37:18;27.40;;;14.73;;
52948;SDS011;38812;50.942;3.644;2023-03-02T12:42:59;28.30;;;14.93;;
52948;SDS011;38812;50.942;3.644;2023-03-02T12:48:38;28.30;;;15.73;;
52948;SDS011;38812;50.942;3.644;2023-03-02T12:51:11;28.33;;;15.77;;
52948;SDS011;38812;50.942;3.644;2023-03-02T12:53:42;28.65;;;14.18;;
52948;SDS011;38812;50.942;3.644;2023-03-02T12:56:07;21.77;;;14.15;;
52948;SDS011;38812;50.942;3.644;2023-03-02T12:58:33;25.17;;;14.30;;
52948;SDS011;38812;50.942;3.644;2023-03-02T13:00:59;26.38;;;15.15;;
52948;SDS011;38812;50.942;3.644;2023-03-02T13:03:28;28.70;;;15.43;;
52948;SDS011;38812;50.942;3.644;2023-03-02T13:06:02;31.13;;;15.60;;
52948;SDS011;38812;50.942;3.644;2023-03-02T13:08:35;30.08;;;15.70;;
52948;SDS011;38812;50.942;3.644;2023-03-02T13:11:00;28.02;;;15.10;;
52948;SDS011;38812;50.942;3.644;2023-03-02T13:13:48;29.65;;;15.98;;
52948;SDS011;38812;50.942;3.644;2023-03-02T13:16:21;28.63;;;15.55;;
52948;SDS011;38812;50.942;3.644;2023-03-02T13:18:49;30.45;;;15.25;;
52948;SDS011;38812;50.942;3.644;2023-03-02T13:21:22;28.08;;;14.25;;
52948;SDS011;38812;50.942;3.644;2023-03-02T13:23:53;25.88;;;14.25;;
52948;SDS011;38812;50.942;3.644;2023-03-02T13:26:20;37.20;;;13.80;;
52948;SDS011;38812;50.942;3.644;2023-03-02T13:29:18;28.23;;;14.93;;
52948;SDS011;38812;50.942;3.644;2023-03-02T13:31:44;32.03;;;14.05;;
52948;SDS011;38812;50.942;3.644;2023-03-02T13:34:24;22.92;;;13.48;;
52948;SDS011;38812;50.942;3.644;2023-03-02T13:36:51;23.35;;;13.38;;
52948;SDS011;38812;50.942;3.644;2023-03-02T13:39:21;22.30;;;13.27;;
52948;SDS011;38812;50.942;3.644;2023-03-02T13:44:30;21.58;;;13.15;;
52948;SDS011;38812;50.942;3.644;2023-03-02T13:46:57;28.20;;;13.02;;
52948;SDS011;38812;50.942;3.644;2023-03-02T13:49:27;21.58;;;13.10;;
52948;SDS011;38812;50.942;3.644;2023-03-02T13:52:01;23.58;;;13.30;;
52948;SDS011;38812;50.942;3.644;2023-03-02T13:54:30;26.58;;;14.55;;
52948;SDS011;38812;50.942;3.644;2023-03-02T13:56:59;24.27;;;14.32;;
52948;SDS011;38812;50.942;3.644;2023-03-02T13:59:26;27.00;;;13.95;;
52948;SDS011;38812;50.942;3.644;2023-03-02T14:01:53;28.30;;;13.73;;
52948;SDS011;38812;50.942;3.644;2023-03-02T14:04:19;31.25;;;14.45;;
52948;SDS011;38812;50.942;3.644;2023-03-02T14:06:47;24.02;;;15.13;;
52948;SDS011;38812;50.942;3.644;2023-03-02T14:09:13;31.27;;;14.70;;
52948;SDS011;38812;50.942;3.644;2023-03-02T14:11:40;23.88;;;14.32;;
52948;SDS011;38812;50.942;3.644;2023-03-02T14:14:19;27.48;;;16.52;;
52948;SDS011;38812;50.942;3.644;2023-03-02T14:16:47;28.65;;;14.85;;
52948;SDS011;38812;50.942;3.644;2023-03-02T14:19:14;24.40;;;14.57;;
52948;SDS011;38812;50.942;3.644;2023-03-02T14:21:43;27.35;;;14.65;;
52948;SDS011;38812;50.942;3.644;2023-03-02T14:24:09;29.50;;;14.50;;
52948;SDS011;38812;50.942;3.644;2023-03-02T14:26:36;30.75;;;16.05;;
52948;SDS011;38812;50.942;3.644;2023-03-02T14:31:53;23.90;;;14.40;;
52948;SDS011;38812;50.942;3.644;2023-03-02T14:34:19;27.98;;;13.95;;
52948;SDS011;38812;50.942;3.644;2023-03-02T14:36:45;26.52;;;14.52;;
52948;SDS011;38812;50.942;3.644;2023-03-02T14:39:26;25.75;;;14.65;;
52948;SDS011;38812;50.942;3.644;2023-03-02T14:41:58;31.20;;;15.20;;
52948;SDS011;38812;50.942;3.644;2023-03-02T14:44:23;25.77;;;17.05;;
52948;SDS011;38812;50.942;3.644;2023-03-02T14:46:49;27.50;;;14.63;;
52948;SDS011;38812;50.942;3.644;2023-03-02T14:49:14;29.45;;;16.73;;
52948;SDS011;38812;50.942;3.644;2023-03-02T14:51:40;30.90;;;14.93;;
52948;SDS011;38812;50.942;3.644;2023-03-02T14:54:11;29.00;;;15.98;;
52948;SDS011;38812;50.942;3.644;2023-03-02T14:56:38;29.65;;;15.63;;
52948;SDS011;38812;50.942;3.644;2023-03-02T14:59:04;26.90;;;15.95;;
52948;SDS011;38812;50.942;3.644;2023-03-02T15:01:30;30.17;;;16.15;;
52948;SDS011;38812;50.942;3.644;2023-03-02T15:03:56;31.33;;;16.35;;
52948;SDS011;38812;50.942;3.644;2023-03-02T15:06:25;26.63;;;15.85;;
52948;SDS011;38812;50.942;3.644;2023-03-02T15:08:53;33.67;;;14.80;;
52948;SDS011;38812;50.942;3.644;2023-03-02T15:11:19;32.88;;;15.60;;
52948;SDS011;38812;50.942;3.644;2023-03-02T15:13:45;34.53;;;18.30;;
52948;SDS011;38812;50.942;3.644;2023-03-02T15:16:10;26.35;;;15.52;;
52948;SDS011;38812;50.942;3.644;2023-03-02T15:18:36;32.05;;;18.67;;
52948;SDS011;38812;50.942;3.644;2023-03-02T15:21:02;29.98;;;15.88;;
52948;SDS011;38812;50.942;3.644;2023-03-02T15:23:28;27.83;;;14.25;;
52948;SDS011;38812;50.942;3.644;2023-03-02T15:25:59;27.63;;;15.10;;
52948;SDS011;38812;50.942;3.644;2023-03-02T15:28:26;25.27;;;14.20;;
52948;SDS011;38812;50.942;3.644;2023-03-02T15:30:52;26.58;;;13.38;;
52948;SDS011;38812;50.942;3.644;2023-03-02T15:33:17;27.33;;;14.02;;
52948;SDS011;38812;50.942;3.644;2023-03-02T15:35:42;24.55;;;14.52;;
52948;SDS011;38812;50.942;3.644;2023-03-02T15:38:08;35.03;;;16.65;;
52948;SDS011;38812;50.942;3.644;2023-03-02T15:40:34;23.48;;;13.00;;